createdAt,value
2023-03-15T00:02:11.485Z,15.30
2023-03-15T00:04:49.993Z,15.30
2023-03-15T00:07:27.822Z,15.20
2023-03-15T00:10:03.436Z,15.40
2023-03-15T00:12:40.445Z,15.50
2023-03-15T00:15:21.392Z,15.60
2023-03-15T00:17:57.396Z,15.60
2023-03-15T00:20:36.792Z,15.70
2023-03-15T00:23:13.461Z,15.70
2023-03-15T00:25:52.314Z,15.70
2023-03-15T00:28:29.950Z,15.80
2023-03-15T00:31:14.675Z,15.80
2023-03-15T00:33:55.446Z,15.80
2023-03-15T00:36:37.085Z,15.90
2023-03-15T00:39:16.709Z,16.00
2023-03-15T00:41:56.049Z,16.10
2023-03-15T00:44:34.577Z,16.20
2023-03-15T00:47:16.900Z,16.20
2023-03-15T00:49:56.025Z,16.30
2023-03-15T00:52:44.453Z,16.30
2023-03-15T00:55:25.412Z,16.40
2023-03-15T00:58:03.831Z,16.30
2023-03-15T01:01:01.450Z,16.30
2023-03-15T01:03:41.202Z,16.50
2023-03-15T01:06:26.939Z,16.50
2023-03-15T01:09:10.437Z,16.50
2023-03-15T01:11:59.873Z,16.60
2023-03-15T01:14:40.173Z,16.70
2023-03-15T01:17:17.189Z,16.90
2023-03-15T01:19:57.826Z,17.10
2023-03-15T01:22:39.313Z,17.30
2023-03-15T01:25:31.291Z,17.40
2023-03-15T01:28:12.976Z,17.60
2023-03-15T01:31:00.760Z,17.80
2023-03-15T01:33:43.529Z,18.00
2023-03-15T01:36:22.131Z,17.80
2023-03-15T01:39:02.008Z,18.10
2023-03-15T01:41:55.182Z,18.00
2023-03-15T01:44:57.522Z,17.70
2023-03-15T01:47:38.685Z,17.60
2023-03-15T01:50:31.108Z,18.00
2023-03-15T01:53:13.912Z,18.20
2023-03-15T01:55:56.042Z,18.30
2023-03-15T01:58:58.566Z,18.70
2023-03-15T02:01:40.157Z,19.00
2023-03-15T02:04:21.424Z,19.10
2023-03-15T02:07:03.945Z,19.50
2023-03-15T02:09:51.754Z,19.70
2023-03-15T02:12:35.898Z,19.80
2023-03-15T02:15:15.748Z,20.20
2023-03-15T02:17:56.092Z,20.30
2023-03-15T02:20:47.218Z,20.30
2023-03-15T02:23:25.557Z,20.60
2023-03-15T02:26:14.510Z,21.00
2023-03-15T02:28:55.878Z,21.20
2023-03-15T02:31:39.857Z,21.20
2023-03-15T02:34:21.987Z,21.40
2023-03-15T02:37:05.471Z,21.50
2023-03-15T02:39:44.975Z,21.50
2023-03-15T02:42:23.847Z,21.60
2023-03-15T02:45:07.998Z,21.60
2023-03-15T02:47:51.143Z,21.70
2023-03-15T02:50:36.820Z,21.80
2023-03-15T02:53:17.200Z,21.60
2023-03-15T02:55:54.097Z,21.50
2023-03-15T02:58:31.375Z,22.00
2023-03-15T03:01:11.917Z,22.10
2023-03-15T03:03:48.674Z,21.80
2023-03-15T03:06:32.846Z,21.80
2023-03-15T03:09:10.751Z,22.00
2023-03-15T03:11:47.706Z,22.10
2023-03-15T03:14:25.903Z,22.00
2023-03-15T03:17:05.800Z,22.00
2023-03-15T03:19:42.313Z,22.20
2023-03-15T03:22:25.752Z,22.30
2023-03-15T03:25:23.706Z,22.50
2023-03-15T03:28:00.670Z,22.50
2023-03-15T03:30:46.148Z,22.60
2023-03-15T03:33:27.305Z,22.50
2023-03-15T03:36:07.845Z,22.40
2023-03-15T03:38:47.384Z,22.40
2023-03-15T03:41:24.170Z,22.40
2023-03-15T03:44:00.447Z,22.40
2023-03-15T03:46:40.479Z,22.50
2023-03-15T03:49:20.837Z,22.50
2023-03-15T03:51:57.548Z,22.60
2023-03-15T03:54:34.580Z,22.00
2023-03-15T03:57:15.632Z,22.00
2023-03-15T03:59:53.471Z,22.00
2023-03-15T04:02:30.164Z,22.30
2023-03-15T04:05:17.506Z,22.20
2023-03-15T04:07:59.395Z,22.20
2023-03-15T04:10:39.122Z,22.20
2023-03-15T04:13:18.038Z,22.30
2023-03-15T04:15:59.646Z,22.20
2023-03-15T04:18:48.556Z,22.30
2023-03-15T04:21:33.986Z,21.90
2023-03-15T04:24:31.304Z,22.10
2023-03-15T04:27:34.905Z,22.40
2023-03-15T04:30:20.688Z,22.60
2023-03-15T04:33:12.785Z,22.50
2023-03-15T04:36:20.387Z,22.60
2023-03-15T04:39:31.735Z,22.50
2023-03-15T04:42:29.142Z,22.80
2023-03-15T04:45:24.556Z,22.70
2023-03-15T04:48:21.361Z,22.80
2023-03-15T04:51:32.950Z,22.90
2023-03-15T04:54:26.388Z,22.80
2023-03-15T04:57:41.012Z,23.00
2023-03-15T05:00:43.455Z,22.90
2023-03-15T05:03:37.282Z,22.60
2023-03-15T05:06:38.339Z,22.60
2023-03-15T05:09:40.122Z,22.80
2023-03-15T05:12:44.973Z,22.70
2023-03-15T05:15:34.961Z,22.80
2023-03-15T05:18:34.335Z,22.50
2023-03-15T05:21:23.988Z,22.80
2023-03-15T05:24:16.324Z,23.20
2023-03-15T05:27:02.596Z,23.10
2023-03-15T05:30:02.027Z,23.40
2023-03-15T05:33:06.445Z,23.40
2023-03-15T05:35:51.488Z,23.20
2023-03-15T05:38:53.515Z,22.80
2023-03-15T05:42:03.557Z,23.20
2023-03-15T05:45:04.506Z,23.30
2023-03-15T05:48:00.742Z,23.20
2023-03-15T05:51:04.700Z,22.70
2023-03-15T05:54:04.331Z,23.10
2023-03-15T05:57:11.077Z,23.00
2023-03-15T06:00:08.601Z,23.00
2023-03-15T06:02:54.440Z,23.20
2023-03-15T06:05:54.012Z,23.20
2023-03-15T06:08:41.274Z,23.20
2023-03-15T06:11:18.355Z,23.40
2023-03-15T06:13:57.349Z,23.20
2023-03-15T06:16:50.145Z,23.30
2023-03-15T06:19:41.919Z,23.20
2023-03-15T06:22:21.791Z,23.30
2023-03-15T06:25:05.271Z,23.40
2023-03-15T06:27:44.844Z,23.50
2023-03-15T06:30:22.900Z,23.60
2023-03-15T06:33:12.477Z,23.70
2023-03-15T06:35:50.997Z,23.70
2023-03-15T06:38:30.350Z,23.60
2023-03-15T06:41:16.962Z,23.60
2023-03-15T06:43:54.589Z,23.60
2023-03-15T06:46:32.783Z,23.50
2023-03-15T06:49:12.817Z,23.50
2023-03-15T06:51:52.890Z,23.40
2023-03-15T06:54:33.273Z,23.50
2023-03-15T06:57:11.308Z,23.30
2023-03-15T06:59:51.663Z,23.20
2023-03-15T07:02:28.287Z,23.40
2023-03-15T07:05:08.431Z,23.30
2023-03-15T07:07:45.235Z,23.30
2023-03-15T07:10:24.703Z,23.50
2023-03-15T07:13:09.005Z,23.40
2023-03-15T07:15:45.626Z,23.30
2023-03-15T07:18:30.722Z,23.20
2023-03-15T07:21:13.634Z,23.10
2023-03-15T07:23:53.855Z,23.20
2023-03-15T07:26:30.609Z,23.00
2023-03-15T07:29:18.344Z,23.00
2023-03-15T07:31:57.194Z,23.10
2023-03-15T07:34:33.484Z,23.00
2023-03-15T07:37:12.492Z,23.10
2023-03-15T07:39:51.013Z,22.70
2023-03-15T07:42:28.197Z,22.50
2023-03-15T07:45:11.673Z,22.50
2023-03-15T07:47:49.856Z,22.60
2023-03-15T07:50:27.685Z,22.60
2023-03-15T07:53:06.330Z,22.50
2023-03-15T07:55:52.177Z,22.20
2023-03-15T07:58:30.263Z,22.10
2023-03-15T08:01:11.585Z,21.80
2023-03-15T08:03:48.638Z,22.20
2023-03-15T08:06:29.117Z,22.30
2023-03-15T08:09:15.672Z,22.40
2023-03-15T08:11:52.444Z,22.60
2023-03-15T08:14:30.484Z,22.30
2023-03-15T08:17:07.397Z,22.10
2023-03-15T08:19:46.294Z,22.20
2023-03-15T08:22:23.662Z,22.20
2023-03-15T08:25:02.365Z,22.10
2023-03-15T08:27:38.576Z,22.40
2023-03-15T08:30:18.125Z,22.40
2023-03-15T08:32:56.233Z,22.10
2023-03-15T08:35:34.833Z,22.20
2023-03-15T08:38:11.613Z,22.30
2023-03-15T08:40:52.882Z,22.10
2023-03-15T08:43:30.575Z,21.60
2023-03-15T08:46:08.915Z,21.60
2023-03-15T08:48:46.514Z,21.70
2023-03-15T08:51:26.988Z,21.80
2023-03-15T08:54:05.665Z,21.90
2023-03-15T08:56:46.506Z,21.80
2023-03-15T08:59:32.422Z,21.70
2023-03-15T09:02:09.191Z,21.70
2023-03-15T09:04:53.509Z,21.60
2023-03-15T09:07:32.456Z,21.60
2023-03-15T09:10:11.806Z,21.60
2023-03-15T09:12:51.504Z,21.60
2023-03-15T09:15:30.662Z,21.60
2023-03-15T09:18:10.438Z,21.60
2023-03-15T09:20:48.636Z,21.60
2023-03-15T09:23:33.477Z,21.40
2023-03-15T09:26:11.027Z,21.00
2023-03-15T09:28:49.447Z,21.30
2023-03-15T09:31:30.825Z,21.30
2023-03-15T09:34:11.555Z,21.20
2023-03-15T09:36:54.892Z,21.20
2023-03-15T09:39:34.854Z,21.00
2023-03-15T09:42:23.217Z,21.00
2023-03-15T09:45:10.188Z,21.10
2023-03-15T09:48:04.772Z,21.20
2023-03-15T09:50:54.899Z,21.10
2023-03-15T09:53:37.319Z,21.10
2023-03-15T09:56:31.146Z,21.00
2023-03-15T09:59:08.968Z,20.50
2023-03-15T10:01:49.147Z,20.60
2023-03-15T10:04:36.357Z,20.80
2023-03-15T10:07:20.175Z,20.50
2023-03-15T10:10:00.463Z,20.40
2023-03-15T10:12:43.437Z,20.50
2023-03-15T10:15:48.459Z,20.30
2023-03-15T10:18:43.315Z,20.30
2023-03-15T10:21:31.535Z,20.30
2023-03-15T10:24:11.099Z,20.30
2023-03-15T10:26:49.661Z,20.20
2023-03-15T10:29:31.699Z,20.20
2023-03-15T10:32:21.285Z,20.40
2023-03-15T10:35:03.741Z,20.40
2023-03-15T10:37:40.927Z,20.40
2023-03-15T10:40:23.536Z,20.40
2023-03-15T10:43:05.868Z,20.20
2023-03-15T10:45:45.886Z,20.10
2023-03-15T10:48:23.383Z,20.10
2023-03-15T10:51:21.081Z,20.10
2023-03-15T10:54:18.179Z,20.20
2023-03-15T10:56:58.562Z,20.20
2023-03-15T10:59:36.952Z,20.10
2023-03-15T11:02:28.300Z,20.00
2023-03-15T11:05:08.655Z,20.10
2023-03-15T11:08:03.718Z,20.00
2023-03-15T11:10:42.370Z,20.00
2023-03-15T11:13:29.263Z,19.90
2023-03-15T11:16:14.387Z,20.00
2023-03-15T11:18:56.942Z,20.00
2023-03-15T11:21:44.924Z,19.80
2023-03-15T11:24:33.406Z,19.80
2023-03-15T11:27:21.091Z,19.80
2023-03-15T11:30:03.792Z,19.90
2023-03-15T11:32:52.126Z,19.80
2023-03-15T11:35:40.423Z,19.80
2023-03-15T11:38:24.903Z,19.70
2023-03-15T11:41:07.986Z,19.70
2023-03-15T11:43:55.963Z,19.70
2023-03-15T11:46:37.581Z,19.70
2023-03-15T11:49:28.082Z,19.70
2023-03-15T11:52:15.273Z,19.70
2023-03-15T11:54:57.293Z,19.80
2023-03-15T11:57:57.455Z,19.70
2023-03-15T12:00:56.275Z,19.60
2023-03-15T12:03:57.578Z,19.70
2023-03-15T12:06:47.028Z,19.50
2023-03-15T12:09:57.641Z,19.60
2023-03-15T12:12:47.911Z,19.40
2023-03-15T12:15:57.194Z,19.50
2023-03-15T12:18:48.828Z,19.40
2023-03-15T12:21:33.266Z,19.40
2023-03-15T12:24:26.953Z,19.30
2023-03-15T12:27:12.048Z,19.40
2023-03-15T12:29:55.533Z,19.50
2023-03-15T12:32:52.069Z,19.60
2023-03-15T12:35:43.145Z,19.50
2023-03-15T12:38:26.547Z,19.60
2023-03-15T12:41:06.443Z,19.60
2023-03-15T12:44:02.719Z,19.60
2023-03-15T12:47:05.632Z,19.60
2023-03-15T12:49:56.669Z,19.70
2023-03-15T12:52:56.140Z,19.60
2023-03-15T12:55:37.742Z,19.50
2023-03-15T12:58:23.330Z,19.30
2023-03-15T13:01:09.667Z,19.20
2023-03-15T13:03:48.507Z,19.30
2023-03-15T13:06:54.158Z,19.30
2023-03-15T13:09:55.279Z,19.30
2023-03-15T13:12:48.224Z,19.30
2023-03-15T13:15:29.956Z,19.30
2023-03-15T13:18:27.949Z,19.30
2023-03-15T13:21:18.632Z,19.20
2023-03-15T13:24:06.464Z,19.30
2023-03-15T13:27:03.602Z,19.40
2023-03-15T13:30:01.463Z,19.40
2023-03-15T13:32:41.151Z,19.50
2023-03-15T13:35:24.009Z,19.50
2023-03-15T13:38:13.545Z,19.40
2023-03-15T13:41:02.152Z,19.40
2023-03-15T13:43:42.173Z,19.40
2023-03-15T13:46:24.253Z,19.40
2023-03-15T13:49:21.517Z,19.40
2023-03-15T13:52:02.152Z,19.40
2023-03-15T13:54:47.226Z,19.40
2023-03-15T13:57:28.939Z,19.40
2023-03-15T14:00:13.257Z,19.40
2023-03-15T14:03:09.766Z,19.40
2023-03-15T14:05:59.077Z,19.40
2023-03-15T14:08:40.626Z,19.30
2023-03-15T14:11:28.613Z,19.30
2023-03-15T14:14:23.721Z,19.30
2023-03-15T14:17:08.919Z,19.10
2023-03-15T14:20:14.733Z,19.20
2023-03-15T14:22:54.769Z,19.30
2023-03-15T14:25:47.236Z,19.30
2023-03-15T14:28:26.470Z,19.30
2023-03-15T14:31:14.461Z,19.30
2023-03-15T14:34:02.176Z,19.30
2023-03-15T14:36:49.028Z,19.20
2023-03-15T14:39:33.277Z,19.20
2023-03-15T14:42:16.773Z,19.20
2023-03-15T14:44:55.498Z,19.10
2023-03-15T14:47:48.603Z,19.20
2023-03-15T14:50:40.356Z,19.20
2023-03-15T14:53:22.945Z,19.10
2023-03-15T14:56:04.339Z,19.10
2023-03-15T14:58:48.306Z,19.20
2023-03-15T15:01:37.349Z,19.20
2023-03-15T15:04:22.463Z,19.20
2023-03-15T15:07:01.090Z,19.20
2023-03-15T15:09:47.057Z,19.10
2023-03-15T15:12:23.759Z,19.00
2023-03-15T15:15:12.181Z,19.10
2023-03-15T15:17:55.507Z,19.10
2023-03-15T15:20:37.489Z,19.10
2023-03-15T15:23:25.680Z,19.00
2023-03-15T15:26:05.804Z,19.00
2023-03-15T15:28:46.768Z,18.90
2023-03-15T15:31:30.473Z,19.00
2023-03-15T15:34:08.300Z,19.00
2023-03-15T15:36:52.089Z,19.00
2023-03-15T15:39:33.430Z,19.00
2023-03-15T15:42:12.856Z,19.00
2023-03-15T15:44:50.011Z,19.00
2023-03-15T15:47:26.559Z,19.00
2023-03-15T15:50:09.478Z,18.90
2023-03-15T15:52:53.254Z,18.80
2023-03-15T15:55:45.237Z,18.80
2023-03-15T15:58:24.875Z,18.80
2023-03-15T16:01:10.105Z,18.80
2023-03-15T16:03:49.318Z,18.80
2023-03-15T16:06:31.366Z,18.80
2023-03-15T16:09:14.039Z,18.70
2023-03-15T16:11:51.057Z,18.70
2023-03-15T16:14:32.119Z,18.70
2023-03-15T16:17:12.478Z,18.70
2023-03-15T16:20:04.065Z,18.70
2023-03-15T16:22:42.714Z,18.70
2023-03-15T16:25:35.820Z,18.70
2023-03-15T16:28:19.960Z,18.70
2023-03-15T16:30:56.511Z,18.70
2023-03-15T16:33:38.506Z,18.70
2023-03-15T16:36:32.771Z,18.70
2023-03-15T16:39:21.582Z,18.60
2023-03-15T16:42:37.931Z,18.50
2023-03-15T16:45:23.572Z,18.20
2023-03-15T16:48:04.860Z,18.00
2023-03-15T16:50:46.744Z,17.90
2023-03-15T16:53:26.715Z,17.90
2023-03-15T16:56:06.744Z,18.20
2023-03-15T16:58:50.944Z,18.30
2023-03-15T17:01:35.328Z,18.20
2023-03-15T17:04:12.278Z,18.30
2023-03-15T17:09:30.431Z,18.30
2023-03-15T17:12:08.495Z,18.10
2023-03-15T17:14:48.075Z,18.20
2023-03-15T17:17:24.615Z,18.20
2023-03-15T17:20:01.421Z,18.20
2023-03-15T17:22:38.469Z,18.10
2023-03-15T17:25:15.119Z,18.20
2023-03-15T17:27:55.155Z,18.30
2023-03-15T17:30:37.604Z,18.50
2023-03-15T17:33:15.855Z,18.50
2023-03-15T17:35:58.899Z,18.60
2023-03-15T17:38:42.617Z,18.60
2023-03-15T17:41:25.576Z,18.50
2023-03-15T17:44:05.137Z,18.50
2023-03-15T17:46:49.066Z,18.50
2023-03-15T17:49:27.383Z,18.50
2023-03-15T17:52:03.725Z,18.50
2023-03-15T17:54:40.025Z,18.50
2023-03-15T17:57:19.672Z,18.40
2023-03-15T17:59:55.275Z,18.50
2023-03-15T18:02:34.524Z,18.40
2023-03-15T18:05:19.009Z,18.50
2023-03-15T18:08:00.490Z,18.40
2023-03-15T18:10:43.202Z,18.30
2023-03-15T18:13:22.730Z,18.20
2023-03-15T18:15:58.827Z,17.80
2023-03-15T18:18:37.348Z,17.70
2023-03-15T18:21:19.746Z,17.90
2023-03-15T18:23:56.132Z,17.80
2023-03-15T18:26:31.854Z,17.70
2023-03-15T18:29:08.327Z,17.70
2023-03-15T18:31:44.972Z,17.70
2023-03-15T18:34:23.717Z,17.90
2023-03-15T18:37:00.146Z,18.00
2023-03-15T18:39:35.856Z,17.90
2023-03-15T18:42:11.701Z,18.00
2023-03-15T18:44:47.916Z,18.10
2023-03-15T18:47:23.120Z,18.20
2023-03-15T18:50:10.044Z,18.20
2023-03-15T18:52:47.846Z,18.10
2023-03-15T18:55:24.849Z,18.10
2023-03-15T18:58:01.902Z,18.20
2023-03-15T19:00:39.712Z,18.10
2023-03-15T19:03:16.414Z,18.10
2023-03-15T19:05:53.701Z,18.10
2023-03-15T19:08:29.010Z,18.00
2023-03-15T19:11:07.608Z,17.90
2023-03-15T19:13:42.770Z,17.90
2023-03-15T19:16:17.851Z,17.70
2023-03-15T19:18:53.664Z,17.50
2023-03-15T19:21:31.166Z,17.50
2023-03-15T19:24:06.295Z,17.50
2023-03-15T19:26:42.302Z,17.50
2023-03-15T19:29:17.902Z,17.30
2023-03-15T19:31:55.333Z,17.20
2023-03-15T19:34:31.178Z,17.20
2023-03-15T19:37:08.953Z,17.20
2023-03-15T19:39:43.867Z,17.10
2023-03-15T19:42:19.811Z,17.20
2023-03-15T19:44:53.839Z,17.20
2023-03-15T19:47:29.355Z,17.20
2023-03-15T19:50:04.999Z,17.10
2023-03-15T19:52:47.754Z,17.20
2023-03-15T19:55:30.385Z,17.20
2023-03-15T19:58:07.124Z,17.20
2023-03-15T20:00:42.170Z,17.20
2023-03-15T20:03:16.537Z,17.30
2023-03-15T20:05:50.450Z,17.30
2023-03-15T20:08:27.844Z,17.30
2023-03-15T20:11:08.282Z,17.20
2023-03-15T20:13:43.958Z,17.20
2023-03-15T20:16:18.776Z,17.20
2023-03-15T20:18:56.739Z,17.20
2023-03-15T20:21:30.891Z,17.10
2023-03-15T20:24:08.116Z,17.10
2023-03-15T20:26:42.950Z,17.00
2023-03-15T20:29:17.490Z,16.80
2023-03-15T20:31:52.284Z,16.60
2023-03-15T20:34:27.372Z,16.30
2023-03-15T20:37:01.931Z,16.30
2023-03-15T20:39:38.862Z,16.20
2023-03-15T20:42:13.006Z,15.90
2023-03-15T20:44:48.013Z,16.00
2023-03-15T20:47:22.774Z,15.70
2023-03-15T20:49:57.307Z,15.80
2023-03-15T20:52:33.866Z,15.80
2023-03-15T20:55:10.728Z,15.90
2023-03-15T20:57:44.889Z,15.90
2023-03-15T21:00:21.447Z,15.50
2023-03-15T21:02:56.982Z,15.50
2023-03-15T21:05:33.387Z,15.60
2023-03-15T21:08:07.873Z,15.40
2023-03-15T21:10:44.458Z,15.50
2023-03-15T21:13:18.900Z,15.60
2023-03-15T21:15:52.538Z,15.40
2023-03-15T21:18:27.470Z,15.40
2023-03-15T21:21:03.768Z,15.40
2023-03-15T21:23:39.057Z,15.30
2023-03-15T21:26:17.102Z,15.40
2023-03-15T21:28:52.411Z,15.50
2023-03-15T21:31:27.320Z,15.50
2023-03-15T21:34:01.650Z,15.50
2023-03-15T21:36:35.688Z,15.50
2023-03-15T21:39:10.631Z,15.40
2023-03-15T21:41:47.010Z,15.40
2023-03-15T21:44:22.466Z,15.40
2023-03-15T21:46:56.478Z,15.60
2023-03-15T21:49:31.101Z,15.60
2023-03-15T21:52:06.212Z,15.50
2023-03-15T21:54:41.188Z,15.50
2023-03-15T21:57:19.005Z,15.70
2023-03-15T21:59:54.037Z,15.90
2023-03-15T22:02:29.180Z,16.10
2023-03-15T22:05:04.681Z,16.10
2023-03-15T22:07:39.284Z,16.10
2023-03-15T22:10:16.427Z,16.10
2023-03-15T22:12:55.309Z,16.00
2023-03-15T22:15:29.975Z,15.80
2023-03-15T22:18:05.730Z,15.70
2023-03-15T22:20:40.006Z,15.60
2023-03-15T22:23:14.169Z,15.70
2023-03-15T22:25:48.825Z,15.60
2023-03-15T22:28:26.352Z,15.60
2023-03-15T22:31:01.236Z,15.70
2023-03-15T22:33:36.863Z,15.50
2023-03-15T22:36:12.457Z,15.30
2023-03-15T22:38:51.497Z,15.20
2023-03-15T22:41:27.112Z,15.20
2023-03-15T22:44:04.161Z,15.30
2023-03-15T22:46:40.030Z,15.30
2023-03-15T22:49:15.606Z,15.40
2023-03-15T22:51:50.891Z,15.40
2023-03-15T22:54:26.888Z,15.60
2023-03-15T22:57:02.973Z,15.70
2023-03-15T22:59:40.867Z,15.40
2023-03-15T23:02:16.890Z,15.20
2023-03-15T23:04:53.109Z,15.30
2023-03-15T23:07:29.087Z,15.00
2023-03-15T23:10:04.860Z,15.10
2023-03-15T23:12:40.981Z,15.00
2023-03-15T23:15:20.131Z,14.80
2023-03-15T23:17:57.190Z,14.90
2023-03-15T23:20:45.450Z,15.10
2023-03-15T23:23:49.877Z,15.30
2023-03-15T23:26:27.158Z,15.40
2023-03-15T23:29:00.970Z,15.30
2023-03-15T23:31:36.840Z,15.20
2023-03-15T23:34:11.074Z,15.30
2023-03-15T23:36:45.510Z,15.40
2023-03-15T23:39:20.258Z,15.30
2023-03-15T23:41:59.422Z,15.40
2023-03-15T23:44:35.449Z,15.40
2023-03-15T23:47:13.716Z,15.30
2023-03-15T23:49:49.323Z,15.40
2023-03-15T23:52:25.852Z,15.60
2023-03-15T23:55:01.621Z,15.40
2023-03-15T23:57:37.676Z,15.40
